Time;durP1;ratioP1;P1;durP2;ratioP2;P2;SDS_P1;SDS_P2;PMS_P1;PMS_P2;Temp;Humidity;BMP_temperature;BMP_pressure;BME280_temperature;BME280_humidity;BME280_pressure;Samples;Min_cycle;Max_cycle;Signal;HPM_P1;HPM_P2
2021/07/17 00:00:40;;;;;;;25.17;19.85;;;18.00;99.90;;;;;;4956307;29;20496;-74
2021/07/17 00:03:06;;;;;;;27.15;20.42;;;18.00;99.90;;;;;;4944767;28;20051;-76
2021/07/17 00:05:33;;;;;;;24.35;19.65;;;18.00;99.90;;;;;;4944718;29;20046;-75
2021/07/17 00:07:59;;;;;;;29.13;19.40;;;18.00;99.90;;;;;;4938625;29;20039;-76
2021/07/17 00:10:28;;;;;;;27.13;19.73;;;18.00;99.90;;;;;;4953332;29;20035;-75
2021/07/17 00:12:55;;;;;;;25.08;20.10;;;18.00;99.90;;;;;;4954118;28;20058;-75
2021/07/17 00:15:24;;;;;;;28.85;20.48;;;17.90;99.90;;;;;;4945482;29;20042;-75
2021/07/17 00:17:51;;;;;;;30.48;21.70;;;17.80;99.90;;;;;;4951891;29;20366;-75
2021/07/17 00:20:17;;;;;;;24.15;19.08;;;17.80;99.90;;;;;;4955196;28;20050;-76
2021/07/17 00:22:44;;;;;;;25.67;21.10;;;17.80;99.90;;;;;;4945852;29;20035;-76
2021/07/17 00:25:14;;;;;;;24.33;19.40;;;17.80;99.90;;;;;;4955208;29;20036;-76
2021/07/17 00:27:40;;;;;;;24.95;20.25;;;17.80;99.90;;;;;;4955708;29;20054;-74
2021/07/17 00:30:07;;;;;;;24.55;19.55;;;17.70;99.90;;;;;;4952070;29;20039;-74
2021/07/17 00:32:34;;;;;;;24.67;18.63;;;17.70;99.90;;;;;;4949159;29;20062;-74
2021/07/17 00:35:01;;;;;;;29.88;19.77;;;17.70;99.90;;;;;;4959880;29;20453;-75
2021/07/17 00:37:27;;;;;;;23.60;19.08;;;17.70;99.90;;;;;;4967457;29;20035;-74
2021/07/17 00:39:53;;;;;;;27.88;19.08;;;17.70;99.90;;;;;;4956496;29;20050;-74
2021/07/17 00:42:19;;;;;;;24.73;19.88;;;17.70;99.90;;;;;;4955598;29;20042;-75
2021/07/17 00:44:46;;;;;;;24.98;19.45;;;17.70;99.90;;;;;;4955804;29;20036;-76
2021/07/17 00:47:14;;;;;;;31.27;20.55;;;17.70;99.90;;;;;;4936085;29;20453;-75
2021/07/17 00:49:40;;;;;;;29.75;20.27;;;17.70;99.90;;;;;;4953466;29;20505;-75
2021/07/17 00:52:07;;;;;;;25.40;19.50;;;17.80;99.90;;;;;;4955127;29;20465;-74
2021/07/17 00:54:33;;;;;;;25.58;19.88;;;17.70;99.90;;;;;;4970261;28;20047;-75
2021/07/17 00:57:02;;;;;;;25.67;18.85;;;17.70;99.90;;;;;;4954460;29;20059;-76
2021/07/17 00:59:32;;;;;;;23.15;20.25;;;17.70;99.90;;;;;;4947311;29;20036;-75
2021/07/17 01:02:00;;;;;;;27.08;20.17;;;17.70;99.90;;;;;;4960617;28;20039;-75
2021/07/17 01:04:28;;;;;;;27.17;19.30;;;17.60;99.90;;;;;;4943794;29;20058;-75
2021/07/17 01:06:58;;;;;;;25.27;20.13;;;17.60;99.90;;;;;;4955516;29;20032;-75
2021/07/17 01:09:26;;;;;;;25.10;19.17;;;17.60;99.90;;;;;;4940780;28;20044;-74
2021/07/17 01:11:56;;;;;;;28.30;20.17;;;17.60;99.90;;;;;;4969107;28;20043;-75
2021/07/17 01:14:23;;;;;;;27.33;21.73;;;17.60;99.90;;;;;;4954766;28;20044;-75
2021/07/17 01:16:50;;;;;;;28.08;20.30;;;17.60;99.90;;;;;;4955801;29;20461;-75
2021/07/17 01:19:23;;;;;;;26.27;20.77;;;17.60;99.90;;;;;;4953815;29;20043;-74
2021/07/17 01:21:53;;;;;;;25.60;20.25;;;17.60;99.90;;;;;;4956162;29;20046;-74
2021/07/17 01:24:21;;;;;;;25.33;19.55;;;17.70;99.90;;;;;;4954788;28;20469;-75
2021/07/17 01:26:48;;;;;;;26.10;20.23;;;17.70;99.90;;;;;;4954991;29;20054;-74
2021/07/17 01:29:14;;;;;;;29.40;21.08;;;17.70;99.90;;;;;;4953670;29;20031;-74
2021/07/17 01:31:41;;;;;;;25.20;21.45;;;17.70;99.90;;;;;;4954680;29;20050;-75
2021/07/17 01:34:07;;;;;;;23.52;19.83;;;17.70;99.90;;;;;;4955678;29;20031;-74
2021/07/17 01:36:33;;;;;;;28.25;21.38;;;17.70;99.90;;;;;;4936751;29;20043;-74
2021/07/17 01:39:00;;;;;;;28.35;20.98;;;17.70;99.90;;;;;;4936903;29;20028;-76
2021/07/17 01:41:26;;;;;;;29.17;22.85;;;17.70;99.90;;;;;;4946764;29;20047;-74
2021/07/17 01:43:55;;;;;;;27.95;22.08;;;17.70;99.90;;;;;;4952115;29;20027;-76
2021/07/17 01:46:21;;;;;;;27.48;21.23;;;17.70;99.90;;;;;;4947694;29;20399;-74
2021/07/17 01:48:52;;;;;;;34.28;23.50;;;17.70;99.90;;;;;;4965226;28;20039;-76
2021/07/17 01:51:18;;;;;;;31.08;22.33;;;17.60;99.90;;;;;;4955221;29;20035;-75
2021/07/17 01:53:45;;;;;;;31.10;20.85;;;17.60;99.90;;;;;;4954805;29;20027;-76
2021/07/17 01:56:11;;;;;;;31.45;23.27;;;17.60;99.90;;;;;;4952973;29;20063;-76
2021/07/17 01:58:37;;;;;;;32.72;22.17;;;17.60;99.90;;;;;;4953740;28;20039;-75
2021/07/17 02:01:04;;;;;;;32.80;22.42;;;17.60;99.90;;;;;;4968593;28;20035;-77
2021/07/17 02:03:30;;;;;;;32.65;23.13;;;17.60;99.90;;;;;;4953530;29;20042;-74
2021/07/17 02:05:57;;;;;;;31.25;23.65;;;17.60;99.90;;;;;;4954698;29;20042;-75
2021/07/17 02:08:24;;;;;;;29.33;22.90;;;17.50;99.90;;;;;;4953546;29;20040;-76
2021/07/17 02:10:50;;;;;;;32.97;23.77;;;17.50;99.90;;;;;;4954461;28;20047;-75
2021/07/17 02:13:16;;;;;;;33.58;24.00;;;17.50;99.90;;;;;;4953799;29;20470;-76
2021/07/17 02:15:44;;;;;;;35.78;23.75;;;17.50;99.90;;;;;;4953997;29;20042;-76
2021/07/17 02:18:15;;;;;;;30.00;23.00;;;17.50;99.90;;;;;;4954158;28;20052;-75
2021/07/17 02:20:42;;;;;;;31.55;23.75;;;17.50;99.90;;;;;;4952692;28;20048;-75
2021/07/17 02:23:10;;;;;;;33.15;23.92;;;17.40;99.90;;;;;;4950185;29;20032;-76
2021/07/17 02:25:36;;;;;;;29.73;24.20;;;17.40;99.90;;;;;;4936616;29;20475;-76
2021/07/17 02:28:04;;;;;;;28.58;24.88;;;17.30;99.90;;;;;;4944604;29;20032;-77
2021/07/17 02:30:30;;;;;;;33.50;25.50;;;17.30;99.90;;;;;;4953597;29;20473;-76
2021/07/17 02:32:57;;;;;;;35.05;23.80;;;17.30;99.90;;;;;;4953746;29;20043;-76
2021/07/17 02:35:23;;;;;;;31.73;24.20;;;17.30;99.90;;;;;;4939269;29;20036;-76
2021/07/17 02:37:50;;;;;;;37.13;24.13;;;17.30;99.90;;;;;;4945766;29;20075;-76
2021/07/17 02:40:17;;;;;;;32.90;24.45;;;17.30;99.90;;;;;;4953409;29;20492;-76
2021/07/17 02:42:43;;;;;;;34.35;23.85;;;17.30;99.90;;;;;;4942348;29;20038;-76
2021/07/17 02:45:12;;;;;;;32.03;25.63;;;17.40;99.90;;;;;;4954443;29;20031;-76
2021/07/17 02:47:38;;;;;;;34.40;24.15;;;17.40;99.90;;;;;;4954392;29;20042;-76
2021/07/17 02:50:06;;;;;;;32.38;24.33;;;17.30;99.90;;;;;;4935685;28;20409;-76
2021/07/17 02:52:32;;;;;;;27.20;22.02;;;17.40;99.90;;;;;;4952484;29;20039;-76
2021/07/17 02:54:58;;;;;;;36.80;24.50;;;17.30;99.90;;;;;;4952650;29;20501;-75
2021/07/17 02:57:25;;;;;;;40.67;25.33;;;17.30;99.90;;;;;;4937223;28;20062;-75
2021/07/17 02:59:51;;;;;;;32.97;24.60;;;17.30;99.90;;;;;;4953558;28;20062;-75
2021/07/17 03:02:17;;;;;;;30.10;24.75;;;17.40;99.90;;;;;;4952427;28;20047;-75
2021/07/17 03:04:43;;;;;;;32.38;24.67;;;17.30;99.90;;;;;;4953056;28;20417;-75
2021/07/17 03:07:10;;;;;;;33.92;24.65;;;17.40;99.90;;;;;;4953044;29;20039;-76
2021/07/17 03:09:36;;;;;;;29.90;22.98;;;17.40;99.90;;;;;;4943758;29;20039;-75
2021/07/17 03:12:03;;;;;;;31.45;24.48;;;17.40;99.90;;;;;;4948460;28;20063;-76
2021/07/17 03:14:30;;;;;;;33.47;23.70;;;17.40;99.90;;;;;;4953368;29;20066;-75
2021/07/17 03:16:56;;;;;;;28.27;23.02;;;17.40;99.90;;;;;;4953626;29;20054;-76
2021/07/17 03:19:22;;;;;;;39.25;26.35;;;17.40;99.90;;;;;;4950731;29;20035;-76
2021/07/17 03:21:48;;;;;;;31.50;24.50;;;17.40;99.90;;;;;;4935739;29;20039;-76
2021/07/17 03:24:14;;;;;;;29.63;22.92;;;17.40;99.90;;;;;;4959542;28;20031;-76
2021/07/17 03:26:41;;;;;;;33.03;25.17;;;17.40;99.90;;;;;;4953580;28;20051;-76
2021/07/17 03:29:07;;;;;;;30.23;23.10;;;17.50;99.90;;;;;;4952809;29;20043;-76
2021/07/17 03:31:34;;;;;;;26.95;21.70;;;17.40;99.90;;;;;;4951971;29;20036;-76
2021/07/17 03:34:00;;;;;;;31.30;23.60;;;17.40;99.90;;;;;;4953167;29;20040;-76
2021/07/17 03:36:27;;;;;;;30.45;23.80;;;17.40;99.90;;;;;;4952329;28;20059;-75
2021/07/17 03:38:53;;;;;;;32.78;23.92;;;17.50;99.90;;;;;;4939180;29;20371;-75
2021/07/17 03:41:20;;;;;;;28.35;22.92;;;17.50;99.90;;;;;;4935940;29;20042;-76
2021/07/17 03:43:46;;;;;;;33.63;25.05;;;17.50;99.90;;;;;;4937981;29;20044;-76
2021/07/17 03:46:13;;;;;;;30.98;22.75;;;17.50;99.90;;;;;;4952997;28;20043;-74
2021/07/17 03:48:39;;;;;;;28.02;23.67;;;17.60;99.90;;;;;;4953288;29;20096;-75
2021/07/17 03:51:06;;;;;;;31.25;24.05;;;17.60;99.90;;;;;;4957807;29;20031;-76
2021/07/17 03:53:33;;;;;;;29.48;21.88;;;17.50;99.90;;;;;;4959849;29;20392;-74
2021/07/17 03:56:00;;;;;;;30.23;23.17;;;17.50;99.90;;;;;;4953944;29;20066;-76
2021/07/17 03:58:26;;;;;;;31.05;22.50;;;17.50;99.90;;;;;;4952617;29;20031;-75
2021/07/17 04:00:52;;;;;;;28.50;22.70;;;17.50;99.90;;;;;;4952858;29;20031;-76
2021/07/17 04:03:19;;;;;;;28.17;22.98;;;17.50;99.90;;;;;;4952916;29;20035;-76
2021/07/17 04:05:45;;;;;;;30.20;22.48;;;17.50;99.90;;;;;;4952815;29;20027;-77
2021/07/17 04:08:11;;;;;;;31.13;21.92;;;17.50;99.90;;;;;;4951615;29;20035;-76
2021/07/17 04:10:37;;;;;;;36.00;23.80;;;17.50;99.90;;;;;;4935148;29;20120;-75
2021/07/17 04:13:04;;;;;;;32.15;23.73;;;17.40;99.90;;;;;;4952190;28;20059;-76
2021/07/17 04:15:30;;;;;;;27.15;22.25;;;17.50;99.90;;;;;;4957865;29;20031;-75
2021/07/17 04:17:57;;;;;;;29.38;23.52;;;17.50;99.90;;;;;;4974770;28;20047;-76
2021/07/17 04:20:23;;;;;;;28.10;22.05;;;17.50;99.90;;;;;;4961152;29;20058;-76
2021/07/17 04:22:49;;;;;;;30.67;24.20;;;17.50;99.90;;;;;;4962137;28;20392;-75
2021/07/17 04:25:15;;;;;;;31.23;22.88;;;17.50;99.90;;;;;;4961660;29;20030;-76
2021/07/17 04:27:42;;;;;;;30.08;21.67;;;17.50;99.90;;;;;;4945545;29;20044;-76
2021/07/17 04:30:09;;;;;;;27.48;21.40;;;17.60;99.90;;;;;;4955970;28;20048;-77
2021/07/17 04:32:36;;;;;;;27.38;21.00;;;17.60;99.90;;;;;;4955900;29;20039;-76
2021/07/17 04:35:07;;;;;;;28.08;21.60;;;17.60;99.90;;;;;;4955773;29;20039;-76
2021/07/17 04:37:33;;;;;;;28.63;21.08;;;17.70;99.90;;;;;;4940262;29;20032;-76
2021/07/17 04:40:00;;;;;;;23.15;20.45;;;17.80;99.90;;;;;;4950545;29;20031;-76
2021/07/17 04:42:27;;;;;;;24.30;21.23;;;17.80;99.90;;;;;;4939365;29;20036;-76
2021/07/17 04:44:53;;;;;;;26.30;21.02;;;17.80;99.90;;;;;;4951874;29;20035;-76
2021/07/17 04:47:20;;;;;;;30.27;21.50;;;17.80;99.90;;;;;;4948440;29;20031;-76
2021/07/17 04:49:46;;;;;;;28.23;19.52;;;17.90;99.90;;;;;;4937908;29;20044;-76
2021/07/17 04:52:12;;;;;;;29.13;21.35;;;17.80;99.90;;;;;;4950087;29;20058;-76
2021/07/17 04:54:38;;;;;;;28.48;20.67;;;17.80;99.90;;;;;;4962730;29;20038;-77
2021/07/17 04:57:05;;;;;;;27.08;19.90;;;17.80;99.90;;;;;;4963140;29;20050;-78
2021/07/17 04:59:31;;;;;;;27.27;20.08;;;17.90;99.90;;;;;;4965601;29;20035;-76
2021/07/17 05:01:57;;;;;;;22.98;18.95;;;17.90;99.90;;;;;;4954635;29;20050;-76
2021/07/17 05:04:23;;;;;;;27.00;19.13;;;17.90;99.90;;;;;;4944308;29;20035;-76
2021/07/17 05:06:49;;;;;;;20.65;18.35;;;17.90;99.90;;;;;;4954283;29;20039;-76
2021/07/17 05:09:15;;;;;;;26.13;18.63;;;18.00;99.90;;;;;;4955224;29;20035;-76
2021/07/17 05:11:42;;;;;;;25.55;18.92;;;18.00;99.90;;;;;;4954650;29;20389;-76
2021/07/17 05:14:08;;;;;;;24.67;17.55;;;18.10;99.90;;;;;;4936903;29;20470;-76
2021/07/17 05:16:34;;;;;;;22.08;17.75;;;18.10;99.90;;;;;;4952106;29;20038;-77
2021/07/17 05:19:00;;;;;;;21.02;16.63;;;18.20;99.90;;;;;;4944358;28;20035;-76
2021/07/17 05:21:26;;;;;;;20.30;16.70;;;18.30;99.90;;;;;;4954345;29;20038;-75
2021/07/17 05:23:53;;;;;;;19.50;16.30;;;18.30;99.90;;;;;;4955237;29;20031;-76
2021/07/17 05:26:19;;;;;;;24.30;17.23;;;18.40;99.90;;;;;;4954680;29;20042;-75
2021/07/17 05:28:45;;;;;;;23.70;17.98;;;18.40;99.90;;;;;;4955013;29;20035;-75
2021/07/17 05:31:11;;;;;;;24.20;17.15;;;18.50;99.90;;;;;;4954508;28;20048;-75
2021/07/17 05:33:38;;;;;;;20.35;16.05;;;18.40;99.90;;;;;;4941941;29;20054;-75
2021/07/17 05:36:04;;;;;;;23.13;16.30;;;18.40;99.90;;;;;;4954904;29;20042;-75
2021/07/17 05:38:30;;;;;;;18.30;16.15;;;18.50;99.90;;;;;;4946487;28;20054;-76
2021/07/17 05:40:56;;;;;;;23.05;16.88;;;18.50;99.90;;;;;;4960952;29;20027;-75
2021/07/17 05:43:22;;;;;;;21.52;16.35;;;18.50;99.90;;;;;;4959955;29;20042;-75
2021/07/17 05:45:52;;;;;;;19.90;16.08;;;18.60;99.90;;;;;;4952419;29;20031;-76
2021/07/17 05:48:18;;;;;;;24.65;16.83;;;18.60;99.90;;;;;;4945033;29;20425;-74
2021/07/17 05:50:44;;;;;;;22.17;15.27;;;18.70;99.90;;;;;;4954740;29;20054;-75
2021/07/17 05:53:11;;;;;;;17.45;15.02;;;18.80;99.90;;;;;;4953101;29;20047;-76
2021/07/17 05:55:37;;;;;;;17.38;14.32;;;19.00;99.90;;;;;;4952406;28;20047;-77
2021/07/17 05:58:03;;;;;;;18.13;13.68;;;19.20;99.90;;;;;;4954708;29;20035;-76
2021/07/17 06:00:29;;;;;;;14.43;12.70;;;19.40;99.90;;;;;;4954156;29;20500;-76
2021/07/17 06:02:55;;;;;;;17.48;13.63;;;19.40;99.90;;;;;;4955030;29;20034;-76
2021/07/17 06:05:22;;;;;;;17.48;13.93;;;19.60;99.90;;;;;;4954545;29;20036;-75
2021/07/17 06:07:48;;;;;;;17.35;13.00;;;19.50;99.90;;;;;;4954737;28;20417;-76
2021/07/17 06:10:15;;;;;;;15.88;12.68;;;19.50;99.90;;;;;;4968304;28;20385;-76
2021/07/17 06:12:41;;;;;;;18.55;13.10;;;19.30;99.90;;;;;;4952464;28;20048;-76
2021/07/17 06:15:08;;;;;;;17.35;13.63;;;19.30;99.90;;;;;;4954303;29;20032;-78
2021/07/17 06:17:34;;;;;;;21.13;11.88;;;19.20;99.90;;;;;;4942467;29;20039;-75
2021/07/17 06:20:00;;;;;;;16.23;12.63;;;19.40;99.90;;;;;;4953771;29;20035;-75
2021/07/17 06:22:26;;;;;;;15.00;11.93;;;19.30;99.90;;;;;;4947923;29;20370;-75
2021/07/17 06:24:52;;;;;;;14.43;11.95;;;19.30;99.90;;;;;;4944659;29;20042;-75
2021/07/17 06:27:19;;;;;;;18.25;13.50;;;19.30;99.90;;;;;;4950064;28;20043;-76
2021/07/17 06:29:45;;;;;;;20.13;12.88;;;19.10;99.90;;;;;;4946287;29;20042;-76
2021/07/17 06:32:11;;;;;;;17.77;12.52;;;19.10;99.90;;;;;;4953393;29;20050;-76
2021/07/17 06:34:37;;;;;;;18.52;13.40;;;19.10;99.90;;;;;;4956791;29;20031;-77
2021/07/17 06:37:04;;;;;;;17.20;12.73;;;19.00;99.90;;;;;;4956457;28;20048;-75
2021/07/17 06:39:30;;;;;;;15.77;12.65;;;19.00;99.90;;;;;;4953790;28;20048;-76
2021/07/17 06:41:56;;;;;;;22.83;14.70;;;19.00;99.90;;;;;;4952326;29;20070;-76
2021/07/17 06:44:22;;;;;;;18.20;12.85;;;19.00;99.90;;;;;;4953682;28;20044;-78
2021/07/17 06:46:49;;;;;;;15.30;12.32;;;18.90;99.90;;;;;;4968380;28;20042;-77
2021/07/17 06:49:15;;;;;;;16.08;12.18;;;18.90;99.90;;;;;;4951446;29;20457;-77
2021/07/17 06:51:41;;;;;;;18.25;12.77;;;19.00;99.90;;;;;;4946909;29;20042;-77
2021/07/17 06:54:07;;;;;;;17.60;12.73;;;19.20;99.90;;;;;;4952332;29;20043;-77
2021/07/17 06:56:34;;;;;;;16.20;12.82;;;19.20;99.90;;;;;;4969171;28;20039;-78
2021/07/17 06:59:00;;;;;;;14.68;11.20;;;19.20;99.90;;;;;;4937454;29;20035;-77
2021/07/17 07:01:26;;;;;;;15.77;12.90;;;19.10;99.90;;;;;;4947421;29;20034;-76
2021/07/17 07:03:52;;;;;;;17.33;11.57;;;19.10;99.90;;;;;;4953517;29;20043;-76
2021/07/17 07:06:19;;;;;;;16.20;11.20;;;19.10;99.90;;;;;;4939578;28;20039;-77
2021/07/17 07:08:45;;;;;;;15.93;10.95;;;19.20;99.90;;;;;;4940843;29;20032;-76
2021/07/17 07:11:11;;;;;;;17.27;11.60;;;19.40;99.90;;;;;;4952719;29;20038;-77
2021/07/17 07:13:37;;;;;;;16.35;12.05;;;19.40;99.90;;;;;;4953429;29;20048;-78
2021/07/17 07:16:04;;;;;;;17.33;11.65;;;19.40;99.90;;;;;;4954417;28;20504;-76
2021/07/17 07:18:30;;;;;;;13.98;11.43;;;19.50;99.90;;;;;;4953214;29;20036;-77
2021/07/17 07:20:56;;;;;;;14.10;11.07;;;19.40;99.90;;;;;;4945234;28;20489;-76
2021/07/17 07:23:23;;;;;;;14.82;11.68;;;19.40;99.90;;;;;;4953273;29;20039;-77
2021/07/17 07:25:49;;;;;;;14.77;11.30;;;19.50;99.90;;;;;;4953462;29;20035;-77
2021/07/17 07:28:15;;;;;;;22.80;11.65;;;19.50;99.90;;;;;;4952937;29;20492;-77
2021/07/17 07:30:41;;;;;;;16.13;12.73;;;19.40;99.90;;;;;;4944598;28;20055;-77
2021/07/17 07:33:07;;;;;;;13.60;10.60;;;19.40;99.90;;;;;;4943371;29;20039;-76
2021/07/17 07:35:34;;;;;;;13.32;10.52;;;19.40;99.90;;;;;;4951311;29;20046;-76
2021/07/17 07:38:00;;;;;;;13.05;11.73;;;19.60;99.90;;;;;;4951990;29;20046;-76
2021/07/17 07:40:29;;;;;;;15.30;11.82;;;19.70;99.90;;;;;;4957824;29;20035;-75
2021/07/17 07:42:56;;;;;;;14.93;11.15;;;19.50;99.90;;;;;;4956366;29;20054;-75
2021/07/17 07:45:22;;;;;;;14.32;10.80;;;19.50;99.90;;;;;;4949768;28;20048;-76
2021/07/17 07:47:49;;;;;;;12.73;10.02;;;19.30;99.90;;;;;;4945516;28;20055;-75
2021/07/17 07:50:15;;;;;;;14.65;10.77;;;19.40;99.90;;;;;;4951222;29;20043;-76
2021/07/17 07:52:42;;;;;;;13.52;11.07;;;19.40;99.90;;;;;;4944417;29;20055;-75
2021/07/17 07:55:08;;;;;;;17.38;12.15;;;19.50;99.90;;;;;;4952278;28;20054;-75
2021/07/17 07:57:35;;;;;;;15.55;10.50;;;19.40;99.90;;;;;;4955243;28;20051;-75
2021/07/17 08:00:01;;;;;;;17.67;10.43;;;19.40;99.90;;;;;;4956334;28;20039;-77
2021/07/17 08:02:27;;;;;;;17.30;10.73;;;19.40;99.90;;;;;;4955666;29;20031;-76
2021/07/17 08:04:54;;;;;;;12.18;9.73;;;19.60;99.90;;;;;;4956345;29;20481;-77
2021/07/17 08:07:20;;;;;;;11.18;9.85;;;19.50;99.90;;;;;;4953489;29;20039;-77
2021/07/17 08:09:46;;;;;;;12.52;9.48;;;19.50;99.90;;;;;;4949493;29;20381;-76
2021/07/17 08:12:13;;;;;;;12.38;9.48;;;19.50;99.90;;;;;;4955906;29;20041;-77
2021/07/17 08:14:39;;;;;;;12.90;9.02;;;19.40;99.90;;;;;;4952304;29;20381;-77
2021/07/17 08:17:07;;;;;;;12.88;10.55;;;19.40;99.90;;;;;;4939264;28;20059;-77
2021/07/17 08:19:33;;;;;;;12.98;9.43;;;19.50;99.90;;;;;;4966489;28;20375;-77
2021/07/17 08:21:59;;;;;;;13.65;8.93;;;19.50;99.90;;;;;;4947294;29;20035;-76
2021/07/17 08:24:26;;;;;;;10.50;8.70;;;19.50;99.90;;;;;;4964921;28;20054;-78
2021/07/17 08:26:52;;;;;;;11.57;8.73;;;19.60;99.90;;;;;;4959540;29;20043;-78
2021/07/17 08:29:18;;;;;;;12.95;8.25;;;19.80;99.90;;;;;;4951514;29;20032;-76
2021/07/17 08:31:44;;;;;;;10.98;8.80;;;19.80;99.90;;;;;;4938249;29;20086;-76
2021/07/17 08:34:11;;;;;;;11.23;8.52;;;19.80;99.90;;;;;;4955495;29;20043;-78
2021/07/17 08:36:37;;;;;;;12.88;8.77;;;19.90;99.90;;;;;;4955503;29;20035;-78
2021/07/17 08:39:04;;;;;;;10.43;8.55;;;19.80;99.90;;;;;;4971275;28;20058;-77
2021/07/17 08:41:34;;;;;;;8.90;8.02;;;19.90;99.90;;;;;;4955135;29;20034;-77
2021/07/17 08:44:02;;;;;;;11.85;8.98;;;19.80;99.90;;;;;;4956863;29;20046;-77
2021/07/17 08:46:28;;;;;;;12.45;8.10;;;19.80;99.90;;;;;;4955601;29;20484;-78
2021/07/17 08:48:56;;;;;;;11.77;8.95;;;19.90;99.90;;;;;;4955855;29;20488;-77
2021/07/17 08:51:22;;;;;;;8.88;7.32;;;19.90;99.90;;;;;;4953550;29;20043;-76
2021/07/17 08:53:49;;;;;;;15.43;7.88;;;20.00;99.90;;;;;;4955972;28;20051;-76
2021/07/17 08:56:16;;;;;;;10.40;7.18;;;20.10;99.90;;;;;;4955217;28;20058;-77
2021/07/17 08:58:42;;;;;;;12.02;7.80;;;20.20;99.90;;;;;;4955440;29;20043;-74
2021/07/17 09:01:09;;;;;;;12.75;8.00;;;20.20;99.90;;;;;;4955210;29;20497;-76
2021/07/17 09:03:35;;;;;;;9.88;6.85;;;20.30;99.90;;;;;;4953642;29;20401;-77
2021/07/17 09:06:01;;;;;;;8.77;7.40;;;20.50;99.90;;;;;;4940996;29;20038;-77
2021/07/17 09:08:28;;;;;;;9.48;7.32;;;20.60;99.90;;;;;;4950296;28;20031;-76
2021/07/17 09:10:55;;;;;;;9.82;7.25;;;20.50;99.90;;;;;;4937560;29;20055;-77
2021/07/17 09:13:34;;;;;;;9.35;7.55;;;20.80;99.90;;;;;;4955932;29;20043;-77
2021/07/17 09:16:05;;;;;;;9.77;6.70;;;21.20;99.90;;;;;;4952499;28;20032;-76
2021/07/17 09:18:47;;;;;;;10.07;6.65;;;21.40;99.90;;;;;;4946809;29;20035;-77
2021/07/17 09:21:21;;;;;;;8.05;6.68;;;21.50;99.90;;;;;;4954871;29;20039;-77
2021/07/17 09:24:02;;;;;;;7.20;6.25;;;21.60;99.70;;;;;;4953605;29;20047;-76
2021/07/17 09:26:34;;;;;;;10.90;7.72;;;22.10;98.50;;;;;;4953642;29;20043;-76
2021/07/17 09:29:09;;;;;;;10.55;6.53;;;21.50;99.40;;;;;;4958354;28;20473;-77
2021/07/17 09:31:58;;;;;;;8.02;6.63;;;21.50;99.40;;;;;;4954556;29;20043;-77
2021/07/17 09:34:28;;;;;;;10.20;6.45;;;21.30;99.50;;;;;;4955884;29;20047;-76
2021/07/17 09:36:57;;;;;;;11.02;7.43;;;21.30;99.40;;;;;;4952960;29;20032;-76
2021/07/17 09:39:35;;;;;;;10.25;6.93;;;21.40;99.70;;;;;;4944363;29;20465;-76
2021/07/17 09:42:11;;;;;;;8.52;7.00;;;21.70;99.10;;;;;;4955034;29;20492;-76
2021/07/17 09:44:37;;;;;;;9.65;6.60;;;21.70;98.90;;;;;;4955537;29;20496;-76
2021/07/17 09:47:23;;;;;;;8.05;6.07;;;21.70;99.00;;;;;;4954917;29;20046;-75
2021/07/17 09:49:50;;;;;;;9.13;6.38;;;21.70;99.00;;;;;;4954562;29;20031;-76
2021/07/17 09:52:22;;;;;;;8.95;6.43;;;21.80;98.60;;;;;;4953571;29;20027;-76
2021/07/17 09:55:06;;;;;;;8.68;6.18;;;21.80;98.30;;;;;;4954800;29;20040;-76
2021/07/17 09:57:34;;;;;;;6.57;5.47;;;21.90;98.40;;;;;;4953248;29;20210;-77
2021/07/17 10:00:04;;;;;;;8.35;6.00;;;22.10;98.20;;;;;;4954191;29;20046;-76
2021/07/17 10:02:31;;;;;;;10.27;6.90;;;22.00;98.00;;;;;;4960302;28;20069;-76
2021/07/17 10:04:57;;;;;;;8.93;6.45;;;21.90;98.60;;;;;;4944874;28;20067;-76
2021/07/17 10:07:24;;;;;;;8.23;5.95;;;21.80;98.20;;;;;;4947233;29;20035;-76
2021/07/17 10:09:50;;;;;;;10.48;6.50;;;22.00;98.60;;;;;;4954541;29;20031;-79
2021/07/17 10:12:16;;;;;;;9.50;6.93;;;22.00;98.10;;;;;;4945886;29;20393;-79
2021/07/17 10:14:43;;;;;;;8.25;6.28;;;22.20;97.40;;;;;;4946012;29;20047;-76
2021/07/17 10:17:17;;;;;;;9.18;6.50;;;22.20;97.50;;;;;;4953514;29;20381;-76
2021/07/17 10:19:44;;;;;;;10.45;6.93;;;22.10;97.00;;;;;;4935833;29;20457;-73
2021/07/17 10:22:11;;;;;;;10.35;7.53;;;21.90;97.20;;;;;;4967139;28;20493;-75
2021/07/17 10:24:39;;;;;;;8.55;7.25;;;21.90;97.40;;;;;;4954032;29;21060;-76
2021/07/17 10:27:06;;;;;;;11.77;7.85;;;22.10;96.90;;;;;;4967409;29;20031;-77
2021/07/17 10:29:32;;;;;;;10.63;6.53;;;22.10;96.80;;;;;;4952430;29;20038;-77
2021/07/17 10:31:59;;;;;;;7.22;6.20;;;22.10;96.70;;;;;;4959217;29;20032;-76
2021/07/17 10:34:26;;;;;;;11.82;7.03;;;22.00;97.10;;;;;;4952549;28;20047;-75
2021/07/17 10:37:05;;;;;;;11.57;6.70;;;22.00;97.20;;;;;;4953827;29;20047;-75
2021/07/17 10:39:39;;;;;;;10.63;6.47;;;22.20;96.50;;;;;;4952399;29;20042;-74
2021/07/17 10:42:26;;;;;;;10.25;6.15;;;22.70;96.20;;;;;;4950244;29;20047;-75
2021/07/17 10:44:54;;;;;;;12.65;7.13;;;22.90;95.60;;;;;;4935132;28;20047;-76
2021/07/17 10:47:21;;;;;;;9.70;6.55;;;23.30;95.10;;;;;;4942740;29;20355;-76
2021/07/17 10:49:53;;;;;;;12.48;6.35;;;23.00;95.60;;;;;;4951875;29;20038;-76
2021/07/17 10:52:40;;;;;;;13.65;6.57;;;23.10;94.80;;;;;;4952342;29;20035;-77
2021/07/17 10:55:26;;;;;;;11.13;6.47;;;23.10;95.20;;;;;;4947829;29;20466;-77
2021/07/17 10:57:54;;;;;;;8.60;6.18;;;23.00;94.60;;;;;;4953582;29;20051;-77
2021/07/17 11:00:42;;;;;;;8.48;6.88;;;22.80;95.50;;;;;;4952153;28;20055;-76
2021/07/17 11:03:29;;;;;;;11.90;6.75;;;22.40;95.90;;;;;;4953060;28;20055;-75
2021/07/17 11:05:56;;;;;;;8.23;6.85;;;22.60;96.00;;;;;;4953744;29;20389;-75
2021/07/17 11:08:38;;;;;;;11.80;7.70;;;22.80;95.50;;;;;;4962742;28;20030;-75
2021/07/17 11:11:26;;;;;;;9.38;6.95;;;22.90;95.10;;;;;;4959017;28;20023;-74
2021/07/17 11:14:17;;;;;;;11.23;7.78;;;23.40;95.10;;;;;;4951842;29;20059;-76
2021/07/17 11:16:45;;;;;;;7.78;6.82;;;23.50;94.30;;;;;;4949260;28;20048;-74
2021/07/17 11:19:28;;;;;;;16.48;7.60;;;23.50;93.70;;;;;;4939876;29;20042;-74
2021/07/17 11:22:09;;;;;;;11.65;8.27;;;23.50;94.20;;;;;;4942232;29;20393;-74
2021/07/17 11:24:36;;;;;;;12.15;7.18;;;23.40;93.90;;;;;;4951629;29;20074;-74
2021/07/17 11:27:13;;;;;;;9.00;7.13;;;23.40;94.10;;;;;;4952301;29;20031;-74
2021/07/17 11:29:44;;;;;;;9.90;7.70;;;23.60;93.80;;;;;;4951634;29;20382;-74
2021/07/17 11:32:13;;;;;;;12.70;6.78;;;23.50;93.40;;;;;;4956059;28;20062;-73
2021/07/17 11:34:53;;;;;;;8.10;7.10;;;23.90;93.50;;;;;;4939210;29;20105;-74
2021/07/17 11:37:24;;;;;;;10.57;8.45;;;24.50;91.70;;;;;;4943075;29;20031;-74
2021/07/17 11:39:55;;;;;;;10.48;7.70;;;24.10;92.90;;;;;;4957112;29;20038;-73
2021/07/17 11:42:22;;;;;;;13.75;8.73;;;24.30;93.20;;;;;;4961063;28;20500;-74
2021/07/17 11:44:58;;;;;;;13.02;8.60;;;24.00;92.50;;;;;;4964853;29;20123;-76
2021/07/17 11:47:30;;;;;;;11.68;8.95;;;23.90;92.80;;;;;;4951561;29;20039;-76
2021/07/17 11:49:59;;;;;;;13.13;9.23;;;23.60;93.00;;;;;;4956259;29;20477;-76
2021/07/17 11:52:29;;;;;;;10.00;9.02;;;23.50;93.30;;;;;;4956424;28;20051;-75
2021/07/17 11:55:04;;;;;;;11.52;8.80;;;23.70;93.30;;;;;;4956426;29;20042;-74
2021/07/17 11:57:32;;;;;;;10.38;8.68;;;23.90;93.50;;;;;;4955517;29;20070;-74
2021/07/17 12:00:19;;;;;;;12.10;8.75;;;24.30;92.90;;;;;;4956553;28;20043;-73
2021/07/17 12:02:52;;;;;;;10.95;8.98;;;24.40;92.70;;;;;;4946797;29;20036;-73
2021/07/17 12:05:19;;;;;;;14.13;8.77;;;24.50;92.10;;;;;;4938853;29;20047;-74
2021/07/17 12:07:47;;;;;;;14.65;10.20;;;24.50;92.40;;;;;;4957643;29;20027;-72
2021/07/17 12:10:16;;;;;;;11.88;10.43;;;24.30;92.40;;;;;;4956285;29;20050;-73
2021/07/17 12:12:46;;;;;;;12.63;10.27;;;24.00;92.80;;;;;;4955727;29;20039;-74
2021/07/17 12:15:22;;;;;;;11.33;10.13;;;23.90;92.50;;;;;;4942449;29;20047;-73
2021/07/17 12:17:48;;;;;;;14.25;10.02;;;24.10;92.40;;;;;;4956049;29;20038;-74
2021/07/17 12:20:22;;;;;;;15.18;11.70;;;24.10;92.60;;;;;;4956003;29;20035;-73
2021/07/17 12:22:50;;;;;;;14.93;11.15;;;23.90;92.70;;;;;;4956314;28;20043;-73
2021/07/17 12:25:20;;;;;;;15.23;11.32;;;23.80;93.10;;;;;;4969227;28;20362;-74
2021/07/17 12:28:01;;;;;;;14.95;10.35;;;23.80;92.70;;;;;;4956033;29;20477;-73
2021/07/17 12:30:33;;;;;;;16.27;11.02;;;24.00;93.00;;;;;;4955637;29;20039;-72
2021/07/17 12:33:09;;;;;;;15.30;12.05;;;24.20;92.60;;;;;;4956039;29;20031;-73
2021/07/17 12:35:35;;;;;;;14.23;11.05;;;24.30;93.10;;;;;;4954116;29;20245;-74